An Xiu Shan — BRQV — position and weather

sailwx.info

Track history (hours):
 
Tides and Currents Weather Stations Pressure Air Temp Water Temp Dewpoint Dewpoint Depression Visibility Wind Speed Wind Dir Waves Ship Positions

An Xiu Shan

Last reported at 2016-Jun-26 18:33 UTC. Time now 2016-Jun-26 19:10 UTC.
Position N 20°15' E 110°33'.

Length 199 m; draft 11.4 m.

Type: Cargo ship. MMSI: 413195000.

Date/timePositionNaut miles runAvg speedWind from/ knotsBaromVisibWave heightAir tempDewpointWater temp
2016-Jun-26 18:33N 20°15' E 110°33'46110.0
2016-Jun-24 20:31N 23°37' E 117°59'2410.9
2016-Jun-24 18:17N 23°53' E 118°19'1710.0
2016-Jun-24 16:33N 24°05' E 118°33'10 9.5
2016-Jun-24 15:30N 24°11' E 118°42'18 9.1
2016-Jun-24 13:31N 24°23' E 118°57'26 8.8
2016-Jun-24 10:32N 24°42' E 119°17'28 9.0
2016-Jun-24 07:26N 25°02' E 119°37'354 9.3
2016-Jun-22 17:21N 30°12' E 122°50'8 9.5
2016-Jun-22 16:30N 30°20' E 122°52'9 9.3
2016-Jun-22 15:33N 30°29' E 122°54'10 9.5
2016-Jun-22 14:33N 30°38' E 122°56'36010.3
2016-Jun-21 03:32N 36°38' E 122°45'1111.1
2016-Jun-21 02:33N 36°48' E 122°45'1110.7
2016-Jun-21 01:30N 36°60' E 122°45'1010.1
2016-Jun-21 00:31N 37°10' E 122°46'18 8.9
2016-Jun-20 22:32N 37°27' E 122°45'9 9.2
2016-Jun-20 21:33N 37°34' E 122°38'1110.0
2016-Jun-20 20:30N 37°41' E 122°28'1010.7
2016-Jun-20 19:33N 37°48' E 122°18'1111.1
2016-Jun-20 18:33N 37°55' E 122°07'1111.0
2016-Jun-20 17:33N 38°00' E 121°55'1110.8
2016-Jun-20 16:31N 38°06' E 121°43'1010.5
2016-Jun-20 15:33N 38°11' E 121°32'3210.7
2016-Jun-20 12:33N 38°30' E 120°59'9110.1
2016-Jun-20 03:33N 39°42' E 119°48'1110.5
2016-Jun-20 02:33N 39°52' E 119°42'4 3.3
2016-Jun-20 01:22N 39°56' E 119°40'0 0.0
2016-Jun-20 00:10N 39°56' E 119°40'0 0.0
2016-Jun-19 23:28N 39°56' E 119°40'0 0.0
2016-Jun-19 22:28N 39°56' E 119°40'0 0.0
2016-Jun-19 21:28N 39°56' E 119°40'0 0.0
2016-Jun-19 20:28N 39°56' E 119°40'0 0.0
2016-Jun-19 19:28N 39°56' E 119°40'0 0.0
2016-Jun-19 18:28N 39°56' E 119°40'0 0.0
2016-Jun-19 17:22N 39°56' E 119°40'0 0.0
2016-Jun-19 16:28N 39°56' E 119°40'0 0.0
2016-Jun-19 15:28N 39°56' E 119°40'0 0.0
2016-Jun-19 14:28N 39°56' E 119°40'0 0.0
2016-Jun-19 13:28N 39°56' E 119°40'0 0.0
2016-Jun-19 12:28N 39°56' E 119°40'0 0.0
2016-Jun-19 11:28N 39°56' E 119°40'0 0.0
2016-Jun-19 10:22N 39°56' E 119°40'0 0.0
2016-Jun-19 09:28N 39°56' E 119°40'1 1.4
2016-Jun-19 08:33N 39°54' E 119°40'7 7.3
2016-Jun-19 07:34N 39°50' E 119°47'2 2.2
2016-Jun-19 06:32N 39°49' E 119°50'0 0.0
2016-Jun-19 05:32N 39°49' E 119°50'0 0.0
2016-Jun-19 04:32N 39°49' E 119°50'0 0.1
2016-Jun-19 03:32N 39°49' E 119°50'0 0.1
2016-Jun-19 02:32N 39°49' E 119°50'0 0.0
2016-Jun-19 01:32N 39°49' E 119°50'0 0.0
2016-Jun-19 00:32N 39°49' E 119°50'0 0.1
2016-Jun-18 23:32N 39°49' E 119°50'0 0.1
2016-Jun-18 22:32N 39°49' E 119°50'0 0.0
2016-Jun-18 13:32N 39°49' E 119°50'8 8.5
2016-Jun-18 12:33N 39°42' E 119°56'1211.3
2016-Jun-18 11:29N 39°32' E 120°05'1511.2
2016-Jun-18 10:10N 39°20' E 120°15'2210.9
2016-Jun-18 08:10N 39°03' E 120°33'911.5
2016-Jun-18 07:20N 38°55' E 120°41'2312.7
2016-Jun-18 05:33N 38°38' E 120°58'7912.4
2016-Jun-17 23:11N 37°53' E 122°22'711.5
2016-Jun-17 22:32N 37°49' E 122°29'1212.2
2016-Jun-17 21:33N 37°41' E 122°41'1312.3
2016-Jun-17 20:30N 37°30' E 122°50'1212.4
2016-Jun-17 19:33N 37°19' E 122°53'1312.7
2016-Jun-17 18:33N 37°06' E 122°54'1312.5
2016-Jun-17 17:32N 36°53' E 122°54'1212.2
2016-Jun-17 16:33N 36°41' E 122°54'1211.9
2016-Jun-17 15:33N 36°30' E 122°56'1212.1
2016-Jun-17 14:32N 36°17' E 122°57'1212.2
2016-Jun-17 13:33N 36°05' E 122°58'1212.2
2016-Jun-17 12:32N 35°53' E 122°57'1212.2
2016-Jun-17 11:33N 35°41' E 122°59'1211.9
2016-Jun-17 10:33N 35°29' E 122°58'1311.9
2016-Jun-17 09:27N 35°16' E 122°56'1611.8
2016-Jun-17 08:07N 35°01' E 122°54'2211.9
2016-Jun-17 06:19N 34°39' E 122°55'  
Track history (hours):
 
Tides and Currents Weather Stations Pressure Air Temp Water Temp Dewpoint Dewpoint Depression Visibility Wind Speed Wind Dir Waves Ship Positions

An Xiu Shan

Last reported at 2016-Jun-26 18:33 UTC. Time now 2016-Jun-26 19:10 UTC.
Position N 20°15' E 110°33'.

Length 199 m; draft 11.4 m.

Type: Cargo ship. MMSI: 413195000.

Date/timePositionNaut miles runAvg speedWind from/ knotsBaromVisibWave heightAir tempDewpointWater temp
2016-Jun-26 18:33N 20°15' E 110°33'46110.0
2016-Jun-24 20:31N 23°37' E 117°59'2410.9
2016-Jun-24 18:17N 23°53' E 118°19'1710.0
2016-Jun-24 16:33N 24°05' E 118°33'10 9.5
2016-Jun-24 15:30N 24°11' E 118°42'18 9.1
2016-Jun-24 13:31N 24°23' E 118°57'26 8.8
2016-Jun-24 10:32N 24°42' E 119°17'28 9.0
2016-Jun-24 07:26N 25°02' E 119°37'354 9.3
2016-Jun-22 17:21N 30°12' E 122°50'8 9.5
2016-Jun-22 16:30N 30°20' E 122°52'9 9.3
2016-Jun-22 15:33N 30°29' E 122°54'10 9.5
2016-Jun-22 14:33N 30°38' E 122°56'36010.3
2016-Jun-21 03:32N 36°38' E 122°45'1111.1
2016-Jun-21 02:33N 36°48' E 122°45'1110.7
2016-Jun-21 01:30N 36°60' E 122°45'1010.1
2016-Jun-21 00:31N 37°10' E 122°46'18 8.9
2016-Jun-20 22:32N 37°27' E 122°45'9 9.2
2016-Jun-20 21:33N 37°34' E 122°38'1110.0
2016-Jun-20 20:30N 37°41' E 122°28'1010.7
2016-Jun-20 19:33N 37°48' E 122°18'1111.1
2016-Jun-20 18:33N 37°55' E 122°07'1111.0
2016-Jun-20 17:33N 38°00' E 121°55'1110.8
2016-Jun-20 16:31N 38°06' E 121°43'1010.5
2016-Jun-20 15:33N 38°11' E 121°32'3210.7
2016-Jun-20 12:33N 38°30' E 120°59'9110.1
2016-Jun-20 03:33N 39°42' E 119°48'1110.5
2016-Jun-20 02:33N 39°52' E 119°42'4 3.3
2016-Jun-20 01:22N 39°56' E 119°40'0 0.0
2016-Jun-20 00:10N 39°56' E 119°40'0 0.0
2016-Jun-19 23:28N 39°56' E 119°40'0 0.0
2016-Jun-19 22:28N 39°56' E 119°40'0 0.0
2016-Jun-19 21:28N 39°56' E 119°40'0 0.0
2016-Jun-19 20:28N 39°56' E 119°40'0 0.0
2016-Jun-19 19:28N 39°56' E 119°40'0 0.0
2016-Jun-19 18:28N 39°56' E 119°40'0 0.0
2016-Jun-19 17:22N 39°56' E 119°40'0 0.0
2016-Jun-19 16:28N 39°56' E 119°40'0 0.0
2016-Jun-19 15:28N 39°56' E 119°40'0 0.0
2016-Jun-19 14:28N 39°56' E 119°40'0 0.0
2016-Jun-19 13:28N 39°56' E 119°40'0 0.0
2016-Jun-19 12:28N 39°56' E 119°40'0 0.0
2016-Jun-19 11:28N 39°56' E 119°40'0 0.0
2016-Jun-19 10:22N 39°56' E 119°40'0 0.0
2016-Jun-19 09:28N 39°56' E 119°40'1 1.4
2016-Jun-19 08:33N 39°54' E 119°40'7 7.3
2016-Jun-19 07:34N 39°50' E 119°47'2 2.2
2016-Jun-19 06:32N 39°49' E 119°50'0 0.0
2016-Jun-19 05:32N 39°49' E 119°50'0 0.0
2016-Jun-19 04:32N 39°49' E 119°50'0 0.1
2016-Jun-19 03:32N 39°49' E 119°50'0 0.1
2016-Jun-19 02:32N 39°49' E 119°50'0 0.0
2016-Jun-19 01:32N 39°49' E 119°50'0 0.0
2016-Jun-19 00:32N 39°49' E 119°50'0 0.1
2016-Jun-18 23:32N 39°49' E 119°50'0 0.1
2016-Jun-18 22:32N 39°49' E 119°50'0 0.0
2016-Jun-18 13:32N 39°49' E 119°50'8 8.5
2016-Jun-18 12:33N 39°42' E 119°56'1211.3
2016-Jun-18 11:29N 39°32' E 120°05'1511.2
2016-Jun-18 10:10N 39°20' E 120°15'2210.9
2016-Jun-18 08:10N 39°03' E 120°33'911.5
2016-Jun-18 07:20N 38°55' E 120°41'2312.7
2016-Jun-18 05:33N 38°38' E 120°58'7912.4
2016-Jun-17 23:11N 37°53' E 122°22'711.5
2016-Jun-17 22:32N 37°49' E 122°29'1212.2
2016-Jun-17 21:33N 37°41' E 122°41'1312.3
2016-Jun-17 20:30N 37°30' E 122°50'1212.4
2016-Jun-17 19:33N 37°19' E 122°53'1312.7
2016-Jun-17 18:33N 37°06' E 122°54'1312.5
2016-Jun-17 17:32N 36°53' E 122°54'1212.2
2016-Jun-17 16:33N 36°41' E 122°54'1211.9
2016-Jun-17 15:33N 36°30' E 122°56'1212.1
2016-Jun-17 14:32N 36°17' E 122°57'1212.2
2016-Jun-17 13:33N 36°05' E 122°58'1212.2
2016-Jun-17 12:32N 35°53' E 122°57'1212.2
2016-Jun-17 11:33N 35°41' E 122°59'1211.9
2016-Jun-17 10:33N 35°29' E 122°58'1311.9
2016-Jun-17 09:27N 35°16' E 122°56'1611.8
2016-Jun-17 08:07N 35°01' E 122°54'2211.9
2016-Jun-17 06:19N 34°39' E 122°55'  

Dump ship's entire track history